createdAt,value
2018-05-17T00:00:17.480Z,22.55
2018-05-17T00:00:49.558Z,22.54
2018-05-17T00:01:21.653Z,22.48
2018-05-17T00:01:53.743Z,22.45
2018-05-17T00:03:45.291Z,22.54
2018-05-17T00:04:17.367Z,22.49
2018-05-17T00:04:49.471Z,22.48
2018-05-17T00:05:21.574Z,22.46
2018-05-17T00:05:53.660Z,22.54
2018-05-17T00:06:25.743Z,22.49
2018-05-17T00:06:57.842Z,22.51
2018-05-17T00:07:29.936Z,22.46
2018-05-17T00:09:21.365Z,22.44
2018-05-17T00:11:12.958Z,22.49
2018-05-17T00:11:45.060Z,22.46
2018-05-17T00:12:17.169Z,22.45
2018-05-17T00:12:49.255Z,22.46
2018-05-17T00:13:21.343Z,22.45
2018-05-17T00:13:53.436Z,22.42
2018-05-17T00:14:25.537Z,22.41
2018-05-17T00:14:57.629Z,22.42
2018-05-17T00:15:29.689Z,22.45
2018-05-17T00:16:01.759Z,22.41
2018-05-17T00:16:33.859Z,22.45
2018-05-17T00:17:05.954Z,22.42
2018-05-17T00:17:38.041Z,22.41
2018-05-17T00:19:29.379Z,22.41
2018-05-17T00:21:21.052Z,22.36
2018-05-17T00:21:53.136Z,22.41
2018-05-17T00:22:25.222Z,22.33
2018-05-17T00:22:57.289Z,22.39
2018-05-17T00:24:48.971Z,22.31
2018-05-17T00:25:21.063Z,22.36
2018-05-17T00:27:12.555Z,22.3
2018-05-17T00:27:44.651Z,22.31
2018-05-17T00:28:16.733Z,22.33
2018-05-17T00:28:48.824Z,22.36
2018-05-17T00:29:20.883Z,22.29
2018-05-17T00:29:52.952Z,22.31
2018-05-17T00:30:25.025Z,22.23
2018-05-17T00:30:57.078Z,22.38
2018-05-17T00:31:29.172Z,22.31
2018-05-17T00:32:01.257Z,22.3
2018-05-17T00:32:33.340Z,22.3
2018-05-17T00:33:05.441Z,22.24
2018-05-17T00:33:37.534Z,22.27
2018-05-17T00:34:09.614Z,22.26
2018-05-17T00:34:41.693Z,22.3
2018-05-17T00:35:13.794Z,22.29
2018-05-17T00:35:45.934Z,22.24
2018-05-17T00:36:17.996Z,22.33
2018-05-17T00:36:50.070Z,22.26
2018-05-17T00:37:22.165Z,22.3
2018-05-17T00:37:54.259Z,22.3
2018-05-17T00:38:26.332Z,22.27
2018-05-17T00:40:17.647Z,22.23
2018-05-17T00:40:49.803Z,22.26
2018-05-17T00:42:41.396Z,22.24
2018-05-17T00:43:13.485Z,22.27
2018-05-17T00:43:45.570Z,22.22
2018-05-17T00:44:17.675Z,22.26
2018-05-17T00:44:49.761Z,22.29
2018-05-17T00:45:21.861Z,22.22
2018-05-17T00:45:53.977Z,22.23
2018-05-17T00:46:26.059Z,22.2
2018-05-17T00:46:58.146Z,22.23
2018-05-17T00:47:30.232Z,22.24
2018-05-17T00:48:02.328Z,22.2
2018-05-17T00:48:34.411Z,22.09
2018-05-17T00:49:06.488Z,22.23
2018-05-17T00:49:38.589Z,22.14
2018-05-17T00:50:10.670Z,22.22
2018-05-17T00:50:42.772Z,22.14
2018-05-17T00:52:34.150Z,22.18
2018-05-17T00:53:06.252Z,22.11
2018-05-17T00:53:38.345Z,22.08
2018-05-17T00:54:10.439Z,22.08
2018-05-17T00:54:42.523Z,22.12
2018-05-17T00:55:14.610Z,22.2
2018-05-17T00:55:46.704Z,22.26
2018-05-17T00:56:18.786Z,22.16
2018-05-17T00:58:10.563Z,22.11
2018-05-17T00:58:42.650Z,22.15
2018-05-17T00:59:14.756Z,22.09
2018-05-17T00:59:46.822Z,22.12
2018-05-17T01:00:18.910Z,22.11
2018-05-17T01:00:50.992Z,22.12
2018-05-17T01:01:23.077Z,22.12
2018-05-17T01:01:55.176Z,22.08
2018-05-17T01:02:27.270Z,22.11
2018-05-17T01:02:59.369Z,22.08
2018-05-17T01:03:31.437Z,22.08
2018-05-17T01:05:22.998Z,22.07
2018-05-17T01:05:55.079Z,22.09
2018-05-17T01:06:27.164Z,22.07
2018-05-17T01:06:59.263Z,22.09
2018-05-17T01:07:31.354Z,22.09
2018-05-17T01:08:03.466Z,22.07
2018-05-17T01:08:35.549Z,22.05
2018-05-17T01:09:07.645Z,22.12
2018-05-17T01:09:39.723Z,22.02
2018-05-17T01:10:11.810Z,22.11
2018-05-17T01:10:43.912Z,22.04
2018-05-17T01:11:16.008Z,22.05
2018-05-17T01:11:48.085Z,21.96
2018-05-17T01:12:20.191Z,22.08
2018-05-17T06:24:56.174Z,21.64
2018-05-17T06:25:28.245Z,21.62
2018-05-17T06:26:00.237Z,21.7
2018-05-17T06:26:32.268Z,21.71
2018-05-17T06:27:04.244Z,21.73
2018-05-17T06:27:36.273Z,21.71
2018-05-17T06:28:08.258Z,21.71
2018-05-17T06:28:40.308Z,21.76
2018-05-17T06:29:12.296Z,21.74
2018-05-17T06:29:44.291Z,21.71
2018-05-17T06:30:16.379Z,21.78
2018-05-17T06:30:48.508Z,21.82
2018-05-17T06:31:20.684Z,21.82
2018-05-17T06:31:52.705Z,21.83
2018-05-17T06:32:24.730Z,21.71
2018-05-17T06:32:56.813Z,21.76
2018-05-17T06:33:28.834Z,21.85
2018-05-17T06:34:00.873Z,21.78
2018-05-17T06:34:32.923Z,21.82
2018-05-17T06:35:05.040Z,21.77
2018-05-17T06:35:37.065Z,21.8
2018-05-17T06:36:09.175Z,21.77
2018-05-17T06:36:41.337Z,21.89
2018-05-17T06:37:13.342Z,21.92
2018-05-17T06:37:45.392Z,21.93
2018-05-17T06:38:17.420Z,21.96
2018-05-17T06:38:49.494Z,21.92
2018-05-17T06:39:21.552Z,21.92
2018-05-17T06:39:53.560Z,21.93
2018-05-17T06:40:25.671Z,21.94
2018-05-17T06:40:57.692Z,21.94
2018-05-17T06:41:30.420Z,22
2018-05-17T06:42:02.456Z,21.9
2018-05-17T06:42:34.526Z,22.05
2018-05-17T06:43:06.583Z,21.94
2018-05-17T06:43:38.635Z,21.97
2018-05-17T06:44:10.782Z,22.04
2018-05-17T06:44:42.784Z,22.07
2018-05-17T06:45:14.828Z,22.05
2018-05-17T06:45:46.827Z,22.08
2018-05-17T06:46:18.906Z,22.11
2018-05-17T06:46:50.954Z,22.14
2018-05-17T06:47:23.612Z,22.12
2018-05-17T06:47:55.616Z,22.05
2018-05-17T06:48:27.630Z,22.11
2018-05-17T06:48:59.711Z,22.07
2018-05-17T06:49:31.684Z,22.15
2018-05-17T06:50:03.766Z,22.15
2018-05-17T06:50:36.226Z,22.2
2018-05-17T06:51:10.520Z,22.24
2018-05-17T06:51:42.532Z,22.26
2018-05-17T06:52:14.534Z,22.12
2018-05-17T06:52:47.409Z,22.12
2018-05-17T06:53:19.517Z,22.2
2018-05-17T06:53:51.543Z,22.24
2018-05-17T06:54:23.562Z,22.2
2018-05-17T06:54:55.640Z,22.2
2018-05-17T06:55:27.691Z,22.27
2018-05-17T06:55:59.781Z,22.23
2018-05-17T06:56:31.810Z,22.23
2018-05-17T06:57:03.780Z,22.16
2018-05-17T06:57:35.829Z,22.24
2018-05-17T06:58:07.876Z,22.24
2018-05-17T06:58:39.888Z,22.33
2018-05-17T06:59:12.014Z,22.29
2018-05-17T06:59:44.052Z,22.33
2018-05-17T07:00:16.115Z,22.23
2018-05-17T07:00:48.270Z,22.3
2018-05-17T07:01:20.292Z,22.34
2018-05-17T07:01:52.335Z,22.38
2018-05-17T07:02:24.326Z,22.36
2018-05-17T07:02:56.366Z,22.39
2018-05-17T07:03:28.951Z,22.41
2018-05-17T07:04:00.931Z,22.33
2018-05-17T07:04:32.964Z,22.36
2018-05-17T07:05:05.015Z,22.45
2018-05-17T07:05:39.907Z,22.41
2018-05-17T07:06:11.913Z,22.46
2018-05-17T07:06:43.929Z,22.42
2018-05-17T07:07:16.017Z,22.46
2018-05-17T07:07:48.025Z,22.51
2018-05-17T07:08:20.068Z,22.52
2018-05-17T07:08:52.225Z,22.45
2018-05-17T07:09:24.260Z,22.45
2018-05-17T07:09:56.277Z,22.45
2018-05-17T07:10:28.372Z,22.45
2018-05-17T07:11:00.499Z,22.46
2018-05-17T07:11:32.672Z,22.46
2018-05-17T07:12:04.715Z,22.55
2018-05-17T07:12:36.703Z,22.55
2018-05-17T07:13:08.779Z,22.55
2018-05-17T07:13:40.818Z,22.61
2018-05-17T07:14:12.861Z,22.59
2018-05-17T07:14:45.091Z,22.61
2018-05-17T07:15:17.112Z,22.61
2018-05-17T07:15:49.168Z,22.61
2018-05-17T07:16:21.181Z,22.64
2018-05-17T07:16:53.229Z,22.54
2018-05-17T07:17:25.269Z,22.63
2018-05-17T07:17:57.347Z,22.71
2018-05-17T07:18:29.686Z,22.69
2018-05-17T07:19:01.976Z,22.71
2018-05-17T07:19:34.062Z,22.73
2018-05-17T07:20:06.093Z,22.66
2018-05-17T07:20:38.129Z,22.69
2018-05-17T07:21:10.153Z,22.75
2018-05-17T07:21:42.167Z,22.69
2018-05-17T07:22:14.214Z,22.85
2018-05-17T07:22:46.321Z,22.81
2018-05-17T07:23:18.347Z,22.79
2018-05-17T07:23:50.516Z,22.89
2018-05-17T07:24:22.664Z,22.85
2018-05-17T07:24:54.658Z,22.79
2018-05-17T07:25:26.684Z,22.91
2018-05-17T07:25:58.664Z,22.84
2018-05-17T07:26:30.804Z,22.92
2018-05-17T07:27:02.853Z,22.96
2018-05-17T07:27:35.617Z,22.99
2018-05-17T07:28:07.664Z,22.96
2018-05-17T07:28:39.676Z,23.01
2018-05-17T07:29:11.710Z,22.99
2018-05-17T07:29:43.782Z,23.03
2018-05-17T07:30:15.879Z,23.03
2018-05-17T07:30:48.002Z,23.01
2018-05-17T07:31:20.152Z,23.06
2018-05-17T07:31:52.380Z,23.03
2018-05-17T07:32:24.444Z,23.03
2018-05-17T07:32:56.441Z,23.09
2018-05-17T07:33:28.439Z,23.1
2018-05-17T07:34:00.473Z,23.14
2018-05-17T07:34:32.521Z,23.03
2018-05-17T07:35:04.532Z,23.1
2018-05-17T07:35:36.576Z,23.09
2018-05-17T07:36:08.633Z,23.04
2018-05-17T07:36:40.652Z,23.07
2018-05-17T07:37:12.664Z,23.14
2018-05-17T07:37:44.778Z,23.1
2018-05-17T07:38:16.808Z,23.18
2018-05-17T07:38:48.794Z,23.15
2018-05-17T07:39:21.018Z,23.16
2018-05-17T07:39:53.142Z,23.22
2018-05-17T07:40:25.241Z,23.18
2018-05-17T07:40:57.264Z,23.26
2018-05-17T07:41:29.283Z,23.25
2018-05-17T07:42:01.361Z,23.16
2018-05-17T07:42:33.379Z,23.21
2018-05-17T07:43:05.391Z,23.28
2018-05-17T07:43:37.412Z,23.22
2018-05-17T07:44:09.373Z,23.29
2018-05-17T07:44:41.413Z,23.26
2018-05-17T07:45:13.426Z,23.29
2018-05-17T07:45:45.444Z,23.32
2018-05-17T07:46:17.514Z,23.4
2018-05-17T07:46:49.658Z,23.37
2018-05-17T07:47:21.784Z,23.34
2018-05-17T07:47:53.964Z,23.4
2018-05-17T07:48:26.004Z,23.44
2018-05-17T07:48:58.007Z,23.35
2018-05-17T07:49:30.019Z,23.42
2018-05-17T07:50:02.085Z,23.34
2018-05-17T07:50:34.084Z,23.41
2018-05-17T07:51:06.106Z,23.4
2018-05-17T07:51:38.205Z,23.4
2018-05-17T07:52:10.274Z,23.44
2018-05-17T07:52:42.408Z,23.44
2018-05-17T07:53:14.383Z,23.45
2018-05-17T07:53:46.451Z,23.42
2018-05-17T07:54:18.495Z,23.45
2018-05-17T07:54:50.480Z,23.48
2018-05-17T07:55:22.486Z,23.55
2018-05-17T07:55:54.533Z,23.5
2018-05-17T07:56:26.520Z,23.5
2018-05-17T07:56:58.586Z,23.6
2018-05-17T07:57:30.626Z,23.57
2018-05-17T07:58:02.639Z,23.57
2018-05-17T07:58:34.778Z,23.59
2018-05-17T07:59:06.826Z,23.59
2018-05-17T07:59:38.898Z,23.59
2018-05-17T08:00:10.879Z,23.57
2018-05-17T08:00:42.916Z,23.6
2018-05-17T08:01:14.936Z,23.7
2018-05-17T08:01:47.062Z,23.7
2018-05-17T08:02:19.196Z,23.72
2018-05-17T08:02:51.231Z,23.7
2018-05-17T08:03:23.229Z,23.62
2018-05-17T08:03:55.219Z,23.72
2018-05-17T08:04:27.243Z,23.67
2018-05-17T08:05:00.488Z,23.77
2018-05-17T08:05:32.610Z,23.79
2018-05-17T08:06:04.682Z,23.89
2018-05-17T08:06:36.717Z,23.84
2018-05-17T08:07:08.724Z,23.81
2018-05-17T08:07:40.728Z,23.92
2018-05-17T08:08:12.743Z,23.9
2018-05-17T08:08:44.760Z,23.94
2018-05-17T08:09:16.771Z,23.9
2018-05-17T08:09:48.913Z,23.93
2018-05-17T08:10:20.945Z,23.93
2018-05-17T08:10:53.095Z,23.94
2018-05-17T08:11:25.138Z,23.93
2018-05-17T08:11:57.206Z,24.03
2018-05-17T08:12:29.242Z,24.07
2018-05-17T08:13:01.335Z,24.08
2018-05-17T08:13:33.356Z,24.11
2018-05-17T08:14:05.411Z,24.11
2018-05-17T08:14:37.428Z,24.12
2018-05-17T08:15:09.467Z,24.15
2018-05-17T08:15:41.525Z,24.17
2018-05-17T08:16:13.570Z,24.11
2018-05-17T08:16:47.106Z,24.21
2018-05-17T08:17:19.191Z,24.17
2018-05-17T08:17:51.251Z,24.17
2018-05-17T08:18:23.365Z,24.22
2018-05-17T08:18:55.412Z,24.19
2018-05-17T08:19:27.428Z,24.19
2018-05-17T08:19:59.576Z,24.22
2018-05-17T08:20:31.653Z,24.26
2018-05-17T08:21:03.813Z,24.24
2018-05-17T08:21:35.918Z,24.19
2018-05-17T08:22:07.992Z,24.24
2018-05-17T08:22:40.134Z,24.26
2018-05-17T08:23:13.425Z,24.24
2018-05-17T08:23:45.477Z,24.29
2018-05-17T08:24:18.386Z,24.32
2018-05-17T08:24:50.435Z,24.3
2018-05-17T08:25:26.156Z,24.32
2018-05-17T08:25:58.328Z,24.27
2018-05-17T08:26:30.427Z,24.39
2018-05-17T08:27:02.794Z,24.46
2018-05-17T08:27:38.265Z,24.39
2018-05-17T08:28:11.410Z,24.42
2018-05-17T08:28:45.273Z,24.44
2018-05-17T08:29:19.414Z,24.46
2018-05-17T08:29:52.945Z,24.44
2018-05-17T08:30:26.138Z,24.44
2018-05-17T08:31:01.978Z,24.46
2018-05-17T08:31:35.757Z,24.46
2018-05-17T08:32:11.230Z,24.52
2018-05-17T08:32:46.140Z,24.52
2018-05-17T08:33:23.511Z,24.46
2018-05-17T08:33:58.259Z,24.54
2018-05-17T08:34:32.036Z,24.61
2018-05-17T08:35:05.727Z,24.59
2018-05-17T08:35:38.879Z,24.59
2018-05-17T08:36:11.754Z,24.69
2018-05-17T08:36:45.119Z,24.74
2018-05-17T08:37:18.948Z,24.66
2018-05-17T08:37:52.177Z,24.64
2018-05-17T08:38:26.100Z,24.75
2018-05-17T08:38:58.163Z,24.66
2018-05-17T08:39:30.188Z,24.77
2018-05-17T08:40:02.185Z,24.78
2018-05-17T08:40:34.414Z,24.75
2018-05-17T08:41:06.621Z,24.78
2018-05-17T08:41:38.912Z,24.82
2018-05-17T08:42:11.123Z,24.83
2018-05-17T08:42:43.229Z,24.86
2018-05-17T08:43:15.320Z,24.86
2018-05-17T08:43:47.410Z,24.83
2018-05-17T08:44:19.472Z,24.89
2018-05-17T08:44:53.457Z,24.89
2018-05-17T08:45:26.487Z,24.92
2018-05-17T08:46:00.136Z,24.92
2018-05-17T08:46:35.015Z,24.93
2018-05-17T08:47:08.512Z,25.01
2018-05-17T08:47:40.912Z,25.07
2018-05-17T08:48:12.953Z,25.01
2018-05-17T08:48:45.073Z,25.02
2018-05-17T08:49:17.375Z,25
2018-05-17T08:49:49.605Z,25.02
2018-05-17T08:50:21.740Z,25.08
2018-05-17T08:50:53.878Z,25.04
2018-05-17T08:51:26.058Z,25.04
2018-05-17T08:51:58.087Z,25.04
2018-05-17T08:52:30.214Z,25.11
2018-05-17T08:53:02.351Z,25.09
2018-05-17T08:53:34.426Z,25.12
2018-05-17T08:54:06.459Z,25.12
2018-05-17T08:54:38.557Z,25.09
2018-05-17T08:55:10.677Z,25.17
2018-05-17T08:55:42.750Z,25.09
2018-05-17T08:56:14.814Z,25.15
2018-05-17T08:56:46.843Z,25.12
2018-05-17T08:57:22.274Z,25.15
2018-05-17T08:57:54.315Z,25.19
2018-05-17T08:58:26.396Z,25.12
2018-05-17T08:58:58.453Z,25.11
2018-05-17T08:59:30.619Z,25.26
2018-05-17T09:00:03.398Z,25.23
2018-05-17T09:00:35.745Z,25.22
2018-05-17T09:01:07.828Z,25.23
2018-05-17T09:01:40.503Z,25.22
2018-05-17T09:02:12.614Z,25.24
2018-05-17T09:02:44.680Z,25.23
2018-05-17T09:03:16.735Z,25.24
2018-05-17T09:03:48.765Z,25.26
2018-05-17T09:04:20.819Z,25.24
2018-05-17T09:04:52.928Z,25.26
2018-05-17T09:05:25.230Z,25.3
2018-05-17T09:06:00.546Z,25.3
2018-05-17T09:06:32.576Z,25.3
2018-05-17T09:07:04.778Z,25.33
2018-05-17T09:07:37.425Z,25.33
2018-05-17T09:08:10.123Z,25.32
2018-05-17T09:08:42.429Z,25.3
2018-05-17T09:09:14.460Z,25.34
2018-05-17T09:09:46.868Z,25.33
2018-05-17T09:10:22.840Z,25.33
2018-05-17T09:10:56.307Z,25.37
2018-05-17T09:11:31.491Z,25.34
2018-05-17T09:12:05.609Z,25.34
2018-05-17T09:12:39.827Z,25.44
2018-05-17T09:13:16.291Z,25.45
2018-05-17T09:13:49.048Z,25.48
2018-05-17T09:14:21.217Z,25.52
2018-05-17T09:14:53.238Z,25.56
2018-05-17T09:15:25.293Z,25.62
2018-05-17T09:15:57.368Z,25.56
2018-05-17T09:16:29.381Z,25.63
2018-05-17T09:17:01.499Z,25.7
2018-05-17T09:17:33.558Z,25.76
2018-05-17T09:18:05.592Z,25.76
2018-05-17T09:18:37.707Z,25.74
2018-05-17T09:19:09.726Z,25.74
2018-05-17T09:19:42.313Z,25.79
2018-05-17T09:20:14.363Z,25.75
2018-05-17T09:20:46.556Z,25.78
2018-05-17T09:21:18.621Z,25.84
2018-05-17T09:21:51.306Z,25.76
2018-05-17T09:22:23.451Z,25.85
2018-05-17T09:22:55.671Z,25.86
2018-05-17T09:23:27.976Z,25.88
2018-05-17T09:24:00.054Z,25.94
2018-05-17T09:24:32.224Z,25.96
2018-05-17T09:25:04.415Z,25.93
2018-05-17T09:25:36.480Z,25.99
2018-05-17T09:26:08.472Z,26.03
2018-05-17T09:26:40.499Z,25.96
2018-05-17T09:27:12.550Z,26.06
2018-05-17T09:27:44.555Z,26.15
2018-05-17T09:28:16.565Z,26.11
2018-05-17T09:28:48.585Z,26.11
2018-05-17T09:29:20.656Z,26.09
2018-05-17T09:29:52.701Z,26.22
2018-05-17T09:30:24.746Z,26.19
2018-05-17T09:30:56.749Z,26.22
2018-05-17T09:31:28.811Z,26.19
2018-05-17T09:32:00.826Z,26.34
2018-05-17T09:32:32.888Z,26.35
2018-05-17T09:33:04.952Z,26.34
2018-05-17T09:33:36.964Z,26.38
2018-05-17T09:34:09.002Z,26.35
2018-05-17T09:34:41.017Z,26.31
2018-05-17T09:35:13.061Z,26.45
2018-05-17T09:35:45.158Z,26.44
2018-05-17T09:36:17.592Z,26.44
2018-05-17T09:36:49.731Z,26.45
2018-05-17T09:37:21.757Z,26.45
2018-05-17T09:37:53.810Z,26.52
2018-05-17T09:38:25.855Z,26.54
2018-05-17T09:38:57.876Z,26.56
2018-05-17T09:39:29.942Z,26.52
2018-05-17T09:40:01.970Z,26.57
2018-05-17T09:40:33.992Z,26.63
2018-05-17T09:41:06.022Z,26.64
2018-05-17T09:41:38.176Z,26.67
2018-05-17T09:42:10.246Z,26.74
2018-05-17T09:42:42.186Z,26.72
2018-05-17T09:43:14.243Z,26.78
2018-05-17T09:43:46.314Z,26.69
2018-05-17T09:44:18.350Z,26.78
2018-05-17T09:44:50.416Z,26.89
2018-05-17T09:45:22.999Z,26.86
2018-05-17T09:45:55.037Z,26.79
2018-05-17T09:46:27.066Z,26.82
2018-05-17T09:46:59.181Z,26.94
2018-05-17T09:47:31.304Z,26.94
2018-05-17T09:48:04.270Z,26.96
2018-05-17T09:48:36.269Z,27
2018-05-17T09:49:08.314Z,27
2018-05-17T09:49:40.955Z,27.09
2018-05-17T09:50:12.990Z,27.04
2018-05-17T09:50:45.077Z,27.05
2018-05-17T09:51:17.139Z,27.15
2018-05-17T09:51:49.221Z,27.13
2018-05-17T09:52:21.263Z,27.08
2018-05-17T09:52:53.295Z,27.13
2018-05-17T09:53:25.324Z,27.19
2018-05-17T09:53:57.835Z,27.19
2018-05-17T09:54:29.905Z,27.12
2018-05-17T09:55:02.021Z,27.16
2018-05-17T09:55:33.998Z,27.09
2018-05-17T09:56:06.101Z,27.26
2018-05-17T09:56:38.127Z,27.28
2018-05-17T09:57:10.169Z,27.24
2018-05-17T09:57:42.386Z,27.24
2018-05-17T09:58:14.411Z,27.31
2018-05-17T09:58:46.583Z,27.27
2018-05-17T09:59:18.770Z,27.33
2018-05-17T09:59:50.906Z,27.33
2018-05-17T10:00:22.940Z,27.45
2018-05-17T10:00:54.971Z,27.42
2018-05-17T10:01:27.082Z,27.43
2018-05-17T10:01:59.084Z,27.45
2018-05-17T10:02:31.091Z,27.46
2018-05-17T10:03:03.110Z,27.49
2018-05-17T10:03:35.178Z,27.52
2018-05-17T10:04:07.228Z,27.46
2018-05-17T10:04:39.402Z,27.57
2018-05-17T10:05:11.395Z,27.42
2018-05-17T10:05:43.472Z,27.49
2018-05-17T10:06:18.299Z,27.53
2018-05-17T10:06:50.322Z,27.51
2018-05-17T10:07:26.552Z,27.53
2018-05-17T10:08:00.698Z,27.53
2018-05-17T10:08:32.732Z,27.53
2018-05-17T10:09:06.178Z,27.49
2018-05-17T10:09:38.230Z,27.52
2018-05-17T10:10:11.200Z,27.51
2018-05-17T10:10:43.234Z,27.45
2018-05-17T10:11:15.348Z,27.61
2018-05-17T10:11:47.426Z,27.55
2018-05-17T10:12:19.419Z,27.64
2018-05-17T10:12:51.416Z,27.65
2018-05-17T10:13:23.556Z,27.66
2018-05-17T10:13:55.679Z,27.72
2018-05-17T10:14:27.668Z,27.72
2018-05-17T10:14:59.731Z,27.75
2018-05-17T10:15:31.908Z,27.71
2018-05-17T10:16:04.220Z,27.74
2018-05-17T10:16:36.246Z,27.71
2018-05-17T10:17:08.267Z,27.66
2018-05-17T10:17:40.406Z,27.68
2018-05-17T10:18:12.417Z,27.72
2018-05-17T10:18:44.432Z,27.79
2018-05-17T10:19:16.481Z,27.8
2018-05-17T10:19:48.553Z,27.86
2018-05-17T10:20:20.592Z,27.89
2018-05-17T10:20:52.610Z,27.84
2018-05-17T10:21:24.705Z,27.86
2018-05-17T10:21:56.953Z,27.9
2018-05-17T10:22:30.215Z,27.89
2018-05-17T10:23:02.417Z,27.96
2018-05-17T10:23:34.577Z,27.93
2018-05-17T10:24:06.660Z,27.94
2018-05-17T10:24:38.707Z,28.05
2018-05-17T10:25:10.716Z,28.03
2018-05-17T10:25:42.732Z,28.02
2018-05-17T10:26:14.737Z,27.99
2018-05-17T10:26:46.761Z,28.08
2018-05-17T10:27:18.815Z,28.03
2018-05-17T10:27:51.015Z,28.05
2018-05-17T10:28:23.024Z,28.06
2018-05-17T10:28:55.031Z,28.06
2018-05-17T10:29:27.034Z,28.18
2018-05-17T10:29:59.244Z,28.12
2018-05-17T10:30:31.293Z,28.14
2018-05-17T10:31:03.371Z,28.17
2018-05-17T10:31:35.524Z,28.24
2018-05-17T10:32:08.256Z,28.27
2018-05-17T10:32:40.273Z,28.31
2018-05-17T10:33:15.070Z,28.27
2018-05-17T10:33:47.101Z,28.26
2018-05-17T10:34:19.222Z,28.27
2018-05-17T10:34:51.333Z,28.35
2018-05-17T10:35:23.412Z,28.38
2018-05-17T10:35:55.434Z,28.33
2018-05-17T10:36:27.449Z,28.43
2018-05-17T10:36:59.503Z,28.43
2018-05-17T10:37:31.537Z,28.49
2018-05-17T10:38:03.629Z,28.46
2018-05-17T10:38:35.668Z,28.51
2018-05-17T10:39:07.745Z,28.61
2018-05-17T10:39:39.778Z,28.57
2018-05-17T10:40:11.845Z,28.64
2018-05-17T10:40:43.960Z,28.64
2018-05-17T10:41:15.985Z,28.53
2018-05-17T10:41:48.022Z,28.58
2018-05-17T10:42:20.081Z,28.7
2018-05-17T10:42:52.160Z,28.72
2018-05-17T10:43:24.244Z,28.64
2018-05-17T10:43:56.240Z,28.68
2018-05-17T10:44:28.211Z,28.75
2018-05-17T10:45:00.980Z,28.78
2018-05-17T10:45:33.113Z,28.72
2018-05-17T10:46:05.277Z,28.86
2018-05-17T10:46:37.373Z,28.79
2018-05-17T10:47:09.407Z,28.78
2018-05-17T10:47:41.441Z,28.88
2018-05-17T10:48:13.568Z,28.82
2018-05-17T10:48:45.603Z,28.88
2018-05-17T10:49:17.638Z,28.85
2018-05-17T10:49:49.784Z,28.83
2018-05-17T10:50:21.820Z,28.85
2018-05-17T10:50:54.010Z,28.9
2018-05-17T10:51:26.152Z,28.91
2018-05-17T10:51:58.252Z,28.94
2018-05-17T10:52:30.271Z,28.92
2018-05-17T10:53:02.303Z,28.91
2018-05-17T10:53:34.351Z,28.95
2018-05-17T10:54:06.376Z,28.94
2018-05-17T10:54:38.460Z,29.02
2018-05-17T10:55:10.408Z,29.06
2018-05-17T10:55:42.480Z,29.02
2018-05-17T10:56:14.498Z,29.06
2018-05-17T10:56:46.482Z,29.1
2018-05-17T10:57:18.631Z,29.06
2018-05-17T10:57:51.530Z,29.11
2018-05-17T10:58:23.524Z,29.14
2018-05-17T10:58:55.556Z,29.24
2018-05-17T10:59:27.599Z,29.21
2018-05-17T10:59:59.756Z,29.18
2018-05-17T11:00:31.838Z,29.18
2018-05-17T11:01:03.837Z,29.29
2018-05-17T11:01:35.916Z,29.33
2018-05-17T11:02:07.929Z,29.26
2018-05-17T11:02:40.096Z,29.39
2018-05-17T11:03:12.136Z,29.36
2018-05-17T11:03:44.137Z,29.38
2018-05-17T11:04:19.193Z,29.4
2018-05-17T11:04:51.302Z,29.39
2018-05-17T11:05:23.425Z,29.45
2018-05-17T11:05:55.439Z,29.5
2018-05-17T11:06:27.505Z,29.48
2018-05-17T11:06:59.550Z,29.52
2018-05-17T11:07:31.603Z,29.52
2018-05-17T11:08:03.614Z,29.6
2018-05-17T11:08:35.659Z,29.5
2018-05-17T11:09:07.656Z,29.57
2018-05-17T11:09:39.674Z,29.67
2018-05-17T11:10:11.704Z,29.69
2018-05-17T11:10:43.737Z,29.63
2018-05-17T11:11:15.751Z,29.67
2018-05-17T11:11:47.888Z,29.69
2018-05-17T11:12:20.043Z,29.67
2018-05-17T11:12:52.116Z,29.84
2018-05-17T11:13:24.148Z,29.82
2018-05-17T11:13:56.180Z,29.81
2018-05-17T11:14:28.217Z,29.88
2018-05-17T11:15:01.099Z,29.87
2018-05-17T11:15:33.161Z,29.94
2018-05-17T11:16:05.198Z,29.98
2018-05-17T11:16:37.223Z,29.98
2018-05-17T11:17:09.248Z,30.06
2018-05-17T11:17:41.368Z,29.98
2018-05-17T11:18:13.354Z,30
2018-05-17T11:18:45.364Z,30.06
2018-05-17T11:19:17.348Z,30.07
2018-05-17T11:19:49.380Z,30.1
2018-05-17T11:20:21.448Z,30.07
2018-05-17T11:20:53.478Z,30.1
2018-05-17T11:21:25.497Z,30.22
2018-05-17T11:21:57.510Z,30.26
2018-05-17T11:22:29.534Z,30.18
2018-05-17T11:23:01.555Z,30.22
2018-05-17T11:23:33.561Z,30.29
2018-05-17T11:24:05.606Z,30.32
2018-05-17T11:24:37.654Z,30.31
2018-05-17T11:25:09.659Z,30.31
2018-05-17T11:25:41.755Z,30.37
2018-05-17T11:26:13.799Z,30.44
2018-05-17T11:26:45.846Z,30.51
2018-05-17T11:27:17.874Z,30.49
2018-05-17T11:27:49.924Z,30.51
2018-05-17T11:28:22.089Z,30.56
2018-05-17T11:28:56.167Z,30.47
2018-05-17T11:29:29.762Z,30.66
2018-05-17T11:30:01.836Z,30.66
2018-05-17T11:30:33.865Z,30.59
2018-05-17T11:31:05.960Z,30.66
2018-05-17T11:31:38.038Z,30.67
2018-05-17T11:32:10.043Z,30.71
2018-05-17T11:32:42.082Z,30.66
2018-05-17T11:33:14.201Z,30.81
2018-05-17T11:33:46.237Z,30.86
2018-05-17T11:34:18.404Z,30.82
2018-05-17T11:34:51.043Z,30.88
2018-05-17T11:35:23.082Z,30.88
2018-05-17T11:35:55.131Z,30.89
2018-05-17T11:36:27.134Z,30.99
2018-05-17T11:36:59.140Z,30.93
2018-05-17T11:37:31.249Z,30.84
2018-05-17T11:38:03.363Z,30.99
2018-05-17T11:38:35.562Z,30.99
2018-05-17T11:39:07.677Z,31.04
2018-05-17T11:39:39.734Z,31
2018-05-17T11:40:11.782Z,31.1
2018-05-17T11:40:43.814Z,31.04
2018-05-17T11:41:15.854Z,31.15
2018-05-17T11:41:47.921Z,31.19
2018-05-17T11:42:19.930Z,31.25
2018-05-17T11:42:51.956Z,31.26
2018-05-17T11:43:24.011Z,31.23
2018-05-17T11:43:56.065Z,31.31
2018-05-17T11:44:28.137Z,31.33
2018-05-17T11:45:00.197Z,31.37
2018-05-17T11:45:32.251Z,31.37
2018-05-17T11:46:04.254Z,31.41
2018-05-17T11:46:36.310Z,31.41
2018-05-17T11:47:08.284Z,31.47
2018-05-17T11:47:40.300Z,31.45
2018-05-17T11:48:12.514Z,31.47
2018-05-17T11:48:44.534Z,31.52
2018-05-17T11:49:16.560Z,31.56
2018-05-17T11:49:48.592Z,31.53
2018-05-17T11:50:20.656Z,31.53
2018-05-17T11:50:52.830Z,31.67
2018-05-17T11:51:24.838Z,31.7
2018-05-17T11:51:56.892Z,31.75
2018-05-17T11:52:28.929Z,31.75
2018-05-17T11:53:00.985Z,31.8
2018-05-17T11:53:33.022Z,31.86
2018-05-17T11:54:05.120Z,31.9
2018-05-17T11:54:37.246Z,31.9
2018-05-17T11:55:09.363Z,32.01
2018-05-17T11:55:41.431Z,32.01
2018-05-17T11:56:13.440Z,31.95
2018-05-17T11:56:45.493Z,32.03
2018-05-17T11:57:17.465Z,32.09
2018-05-17T11:57:49.482Z,32.05
2018-05-17T11:58:21.504Z,32.23
2018-05-17T11:58:53.506Z,32.13
2018-05-17T11:59:25.530Z,32.23
2018-05-17T11:59:57.579Z,32.27
2018-05-17T12:00:29.553Z,32.27
2018-05-17T12:01:01.607Z,32.32
2018-05-17T12:01:33.771Z,32.42
2018-05-17T12:02:06.107Z,32.3
2018-05-17T12:02:38.250Z,32.39
2018-05-17T12:03:10.419Z,32.45
2018-05-17T12:03:42.448Z,32.47
2018-05-17T12:04:14.555Z,32.57
2018-05-17T12:04:46.620Z,32.62
2018-05-17T12:05:18.613Z,32.61
2018-05-17T12:05:50.661Z,32.61
2018-05-17T12:06:22.749Z,32.69
2018-05-17T12:06:54.768Z,32.67
2018-05-17T12:07:26.790Z,32.72
2018-05-17T12:07:58.880Z,32.69
2018-05-17T12:08:30.846Z,32.75
2018-05-17T12:09:02.854Z,32.76
2018-05-17T12:09:34.896Z,32.72
2018-05-17T12:10:07.035Z,32.72
2018-05-17T12:10:39.045Z,32.79
2018-05-17T12:11:11.082Z,32.79
2018-05-17T12:11:43.202Z,32.8
2018-05-17T12:12:15.308Z,32.69
2018-05-17T12:12:47.328Z,32.76
2018-05-17T12:13:19.350Z,32.74
2018-05-17T12:13:51.346Z,32.69
2018-05-17T12:14:23.377Z,32.72
2018-05-17T12:14:55.445Z,32.84
2018-05-17T12:15:27.462Z,32.75
2018-05-17T12:15:59.509Z,32.91
2018-05-17T12:16:31.565Z,32.9
2018-05-17T12:17:03.653Z,32.98
2018-05-17T12:17:35.805Z,33.02
2018-05-17T12:18:07.800Z,32.91
2018-05-17T12:18:39.829Z,32.98
2018-05-17T12:19:11.860Z,33.06
2018-05-17T12:19:44.664Z,32.98
2018-05-17T12:20:16.686Z,33.02
2018-05-17T12:20:48.731Z,33.01
2018-05-17T12:21:20.756Z,32.9
2018-05-17T12:21:52.793Z,33.08
2018-05-17T12:22:24.811Z,33.08
2018-05-17T12:22:56.919Z,33.08
2018-05-17T12:23:28.916Z,33.09
2018-05-17T12:24:00.940Z,33.2
2018-05-17T12:24:32.947Z,33.12